createdAt,value
2023-02-15T00:03:22.794Z,59.20
2023-02-15T00:07:49.259Z,50.50
2023-02-15T00:11:50.664Z,62.10
2023-02-15T00:15:52.112Z,57.20
2023-02-15T00:19:53.658Z,59.90
2023-02-15T00:23:55.002Z,51.80
2023-02-15T00:27:56.352Z,59.00
2023-02-15T00:31:57.698Z,55.50
2023-02-15T00:36:00.703Z,61.00
2023-02-15T00:40:02.528Z,49.30
2023-02-15T00:44:05.135Z,79.90
2023-02-15T00:48:32.602Z,63.40
2023-02-15T00:52:34.132Z,51.40
2023-02-15T00:56:35.773Z,63.00
2023-02-15T01:00:51.307Z,54.00
2023-02-15T01:04:52.976Z,50.60
2023-02-15T01:09:11.127Z,56.70
2023-02-15T01:13:12.426Z,51.10
2023-02-15T01:17:13.825Z,46.70
2023-02-15T01:21:21.279Z,48.00
2023-02-15T01:25:24.264Z,57.60
2023-02-15T01:29:25.690Z,47.10
2023-02-15T01:33:27.421Z,50.00
2023-02-15T01:37:31.699Z,60.30
2023-02-15T01:41:33.237Z,47.80
2023-02-15T01:45:39.357Z,48.50
2023-02-15T01:49:42.644Z,50.60
2023-02-15T01:57:53.728Z,54.50
2023-02-15T02:01:58.716Z,47.60
2023-02-15T02:06:00.504Z,50.10
2023-02-15T02:11:18.051Z,49.90
2023-02-15T02:15:24.164Z,47.90
2023-02-15T02:19:50.296Z,56.30
2023-02-15T02:24:09.365Z,52.20
2023-02-15T02:28:52.931Z,50.20
2023-02-15T02:33:35.377Z,60.90
2023-02-15T02:37:48.915Z,47.50
2023-02-15T02:42:18.106Z,57.00
2023-02-15T02:46:26.754Z,63.30
2023-02-15T02:50:30.066Z,62.30
2023-02-15T02:54:34.989Z,63.50
2023-02-15T03:18:34.130Z,65.90
2023-02-15T03:37:32.381Z,66.10
2023-02-15T03:41:57.200Z,59.00
2023-02-15T03:46:08.402Z,52.10
2023-02-15T03:55:23.992Z,61.10
2023-02-15T04:04:26.843Z,45.80
2023-02-15T04:08:46.826Z,52.70
2023-02-15T04:13:21.731Z,56.00
2023-02-15T04:17:23.167Z,55.70
2023-02-15T04:21:49.672Z,55.80
2023-02-15T04:25:51.133Z,47.70
2023-02-15T04:29:52.652Z,61.50
2023-02-15T04:43:33.814Z,54.50
2023-02-15T04:47:43.845Z,79.20
2023-02-15T04:51:45.742Z,152.00
2023-02-15T04:55:52.353Z,85.60
2023-02-15T04:59:54.142Z,73.70
2023-02-15T05:03:56.169Z,59.20
2023-02-15T05:07:58.184Z,67.10
2023-02-15T05:12:00.413Z,67.30
2023-02-15T05:16:03.444Z,47.40
2023-02-15T05:30:02.853Z,62.20
2023-02-15T05:34:49.519Z,104.20
2023-02-15T05:39:01.840Z,95.70
2023-02-15T05:43:04.256Z,110.60
2023-02-15T05:47:40.993Z,95.50
2023-02-15T05:51:43.752Z,81.70
2023-02-15T05:55:50.595Z,87.00
2023-02-15T06:09:27.856Z,61.70
2023-02-15T06:13:31.086Z,66.10
2023-02-15T06:17:32.497Z,54.00
2023-02-15T06:21:44.341Z,70.80
2023-02-15T06:25:46.611Z,116.60
2023-02-15T06:29:48.025Z,147.00
2023-02-15T06:33:50.711Z,158.60
2023-02-15T06:37:52.119Z,89.10
2023-02-15T06:42:44.271Z,80.70
2023-02-15T06:46:45.697Z,75.40
2023-02-15T06:50:55.358Z,69.00
2023-02-15T06:54:56.818Z,53.60
2023-02-15T07:00:03.118Z,56.10
2023-02-15T07:04:04.733Z,83.60
2023-02-15T07:09:11.871Z,71.40
2023-02-15T07:13:13.241Z,54.30
2023-02-15T07:17:40.226Z,70.20
2023-02-15T07:21:41.745Z,64.20
2023-02-15T07:25:43.186Z,73.60
2023-02-15T07:29:44.721Z,57.70
2023-02-15T07:33:59.237Z,63.30
2023-02-15T07:47:41.420Z,188.10
2023-02-15T08:21:05.451Z,80.50
2023-02-15T08:29:55.597Z,82.90
2023-02-15T08:34:00.929Z,67.70
2023-02-15T08:38:03.688Z,94.10
2023-02-15T08:42:11.647Z,78.00
2023-02-15T08:46:16.613Z,76.00
2023-02-15T08:55:59.633Z,61.50
2023-02-15T09:22:07.418Z,80.50
2023-02-15T09:26:13.111Z,69.30
2023-02-15T09:30:15.177Z,122.70
2023-02-15T09:34:18.790Z,76.40
2023-02-15T09:38:20.549Z,71.10
2023-02-15T09:47:57.581Z,80.20
2023-02-15T09:52:08.041Z,70.30
2023-02-15T09:57:16.294Z,68.70
2023-02-15T10:06:32.770Z,68.70
2023-02-15T10:25:13.130Z,70.10
2023-02-15T10:30:21.236Z,58.00
2023-02-15T11:14:48.343Z,63.70
2023-02-15T11:19:09.547Z,63.70
2023-02-15T11:23:16.729Z,53.80
2023-02-15T11:27:26.759Z,64.70
2023-02-15T11:31:48.499Z,61.00
2023-02-15T11:45:35.823Z,57.70
2023-02-15T11:49:41.962Z,63.50
2023-02-15T11:53:46.079Z,58.80
2023-02-15T11:58:41.473Z,56.80
2023-02-15T12:02:55.903Z,57.20
2023-02-15T12:07:22.862Z,65.70
2023-02-15T12:11:32.420Z,60.00
2023-02-15T12:15:36.853Z,50.50
2023-02-15T12:19:40.849Z,55.50
2023-02-15T12:24:39.954Z,57.30
2023-02-15T12:28:44.766Z,54.30
2023-02-15T12:33:00.096Z,55.50
2023-02-15T12:37:09.717Z,62.90
2023-02-15T12:41:26.210Z,56.70
2023-02-15T12:45:30.441Z,61.80
2023-02-15T12:49:38.985Z,51.30
2023-02-15T12:53:43.523Z,55.70
2023-02-15T12:58:22.518Z,54.90
2023-02-15T13:02:28.759Z,58.60
2023-02-15T13:16:38.435Z,49.50
2023-02-15T13:20:42.164Z,55.20
2023-02-15T13:25:26.220Z,54.60
2023-02-15T13:29:36.176Z,47.60
2023-02-15T13:33:38.705Z,53.90
2023-02-15T13:38:02.126Z,53.70
2023-02-15T14:09:36.254Z,53.70
2023-02-15T14:28:47.122Z,47.70
2023-02-15T14:32:53.354Z,63.20
2023-02-15T14:36:56.502Z,87.80
2023-02-15T14:46:36.370Z,90.10
2023-02-15T14:51:08.340Z,56.60
2023-02-15T14:55:10.654Z,53.00
2023-02-15T14:59:39.223Z,47.20
2023-02-15T15:03:56.742Z,61.20
2023-02-15T15:08:00.938Z,58.80
2023-02-15T15:12:37.229Z,54.90
2023-02-15T15:16:38.543Z,54.80
2023-02-15T15:20:54.864Z,97.50
2023-02-15T15:25:23.758Z,99.50
2023-02-15T15:29:41.133Z,64.90
2023-02-15T15:34:10.184Z,62.50
2023-02-15T15:38:32.349Z,81.40
2023-02-15T15:42:42.992Z,80.60
2023-02-15T15:47:25.939Z,95.20
2023-02-15T15:51:31.832Z,79.30
2023-02-15T15:55:35.012Z,72.20
2023-02-15T15:59:36.489Z,61.40
2023-02-15T16:03:37.924Z,55.00
2023-02-15T16:07:41.660Z,50.70
2023-02-15T16:12:14.362Z,49.70
2023-02-15T16:16:22.798Z,56.40
2023-02-15T16:20:57.722Z,46.50
2023-02-15T16:25:05.485Z,58.60
2023-02-15T16:29:18.128Z,40.90
2023-02-15T16:33:20.462Z,56.00
2023-02-15T16:37:26.386Z,48.50
2023-02-15T16:47:41.540Z,53.60
2023-02-15T16:51:47.471Z,56.40
2023-02-15T16:55:53.427Z,65.50
2023-02-15T17:00:01.405Z,65.10
2023-02-15T17:04:30.521Z,67.80
2023-02-15T17:08:33.167Z,81.00
2023-02-15T17:12:45.405Z,205.40
2023-02-15T17:22:07.361Z,123.10
2023-02-15T17:26:25.098Z,126.20
2023-02-15T17:30:38.176Z,97.00
2023-02-15T17:35:25.051Z,92.40
2023-02-15T17:39:26.461Z,98.00
2023-02-15T17:43:27.932Z,87.20
2023-02-15T17:47:30.817Z,86.20
2023-02-15T17:51:35.333Z,86.80
2023-02-15T17:55:44.459Z,128.90
2023-02-15T18:00:04.600Z,93.30
2023-02-15T18:04:31.788Z,97.30
2023-02-15T18:12:53.282Z,110.90
2023-02-15T18:16:55.110Z,120.40
2023-02-15T18:20:56.577Z,106.70
2023-02-15T18:24:58.772Z,110.30
2023-02-15T18:29:02.736Z,91.90
2023-02-15T18:33:04.177Z,111.70
2023-02-15T18:37:10.590Z,137.70
2023-02-15T18:41:18.196Z,137.20
2023-02-15T18:45:53.335Z,129.40
2023-02-15T18:49:54.754Z,147.70
2023-02-15T18:53:56.891Z,102.30
2023-02-15T18:57:58.936Z,86.30
2023-02-15T19:02:50.543Z,105.80
2023-02-15T19:06:53.651Z,94.50
2023-02-15T19:10:55.505Z,84.30
2023-02-15T19:14:56.939Z,77.60
2023-02-15T19:19:07.467Z,85.10
2023-02-15T19:23:33.114Z,75.20
2023-02-15T19:27:35.286Z,67.60
2023-02-15T19:31:36.786Z,102.70
2023-02-15T19:35:44.011Z,86.30
2023-02-15T19:39:45.473Z,79.90
2023-02-15T19:43:52.630Z,72.10
2023-02-15T19:47:54.571Z,63.70
2023-02-15T19:51:59.231Z,74.60
2023-02-15T19:56:00.877Z,78.80
2023-02-15T20:00:22.129Z,67.70
2023-02-15T20:04:25.305Z,51.40
2023-02-15T20:08:28.881Z,59.70
2023-02-15T20:12:30.399Z,65.80
2023-02-15T20:17:00.157Z,66.20
2023-02-15T20:21:03.084Z,66.00
2023-02-15T20:25:05.347Z,63.90
2023-02-15T20:29:12.311Z,54.00
2023-02-15T20:33:15.257Z,60.00
2023-02-15T20:38:22.471Z,70.50
2023-02-15T20:42:23.871Z,60.90
2023-02-15T20:46:25.595Z,53.20
2023-02-15T20:50:53.652Z,49.80
2023-02-15T20:54:55.151Z,58.10
2023-02-15T20:58:56.572Z,62.20
2023-02-15T21:03:00.335Z,55.60
2023-02-15T21:07:30.357Z,51.80
2023-02-15T21:11:31.779Z,51.90
2023-02-15T21:15:35.976Z,55.10
2023-02-15T21:19:40.690Z,57.50
2023-02-15T21:23:51.087Z,66.80
2023-02-15T21:27:53.030Z,48.70
2023-02-15T21:32:26.756Z,52.80
2023-02-15T21:36:28.268Z,43.70
2023-02-15T21:40:31.650Z,51.40
2023-02-15T21:44:53.906Z,59.30
2023-02-15T21:48:55.387Z,57.50
2023-02-15T21:53:34.382Z,60.80
2023-02-15T21:57:35.778Z,70.80
2023-02-15T22:01:47.059Z,83.20
2023-02-15T22:05:48.496Z,68.00
2023-02-15T22:09:49.965Z,80.90
2023-02-15T22:13:51.417Z,69.70
2023-02-15T22:17:57.059Z,64.90
2023-02-15T22:21:58.390Z,66.30
2023-02-15T22:26:27.302Z,55.60
2023-02-15T22:30:33.178Z,57.80
2023-02-15T22:34:34.652Z,56.10
2023-02-15T22:39:02.020Z,52.10
2023-02-15T22:43:05.022Z,42.20
2023-02-15T22:47:20.234Z,44.20
2023-02-15T22:51:23.921Z,50.70
2023-02-15T22:55:32.999Z,52.90
2023-02-15T22:59:34.458Z,54.30
2023-02-15T23:03:36.975Z,49.70
2023-02-15T23:07:38.379Z,52.00
2023-02-15T23:11:46.437Z,53.90
2023-02-15T23:16:12.061Z,58.60
2023-02-15T23:20:14.577Z,58.10
2023-02-15T23:24:42.869Z,61.30
2023-02-15T23:28:45.121Z,67.10
2023-02-15T23:33:58.991Z,60.70
2023-02-15T23:38:00.408Z,65.90
2023-02-15T23:42:25.091Z,70.80
2023-02-15T23:46:44.902Z,60.30
2023-02-15T23:50:46.351Z,76.20
2023-02-15T23:55:15.122Z,58.40
2023-02-15T23:59:20.653Z,70.10
